Time;durP1;ratioP1;P1;durP2;ratioP2;P2;SDS_P1;SDS_P2;PMS_P1;PMS_P2;Temp;Humidity;BMP_temperature;BMP_pressure;BME280_temperature;BME280_humidity;BME280_pressure;Samples;Min_cycle;Max_cycle;Signal;HPM_P1;HPM_P2
2022/03/04 00:00:42;;;;;;;20.03;16.07;;;0.90;99.90;;;;;;5053730;28;20256;-66
2022/03/04 00:03:08;;;;;;;20.67;16.90;;;0.90;99.90;;;;;;5053323;28;20293;-65
2022/03/04 00:05:33;;;;;;;19.00;16.97;;;0.90;99.90;;;;;;5053781;28;20199;-65
2022/03/04 00:07:59;;;;;;;22.37;16.70;;;0.80;99.90;;;;;;5053239;28;20884;-66
2022/03/04 00:10:25;;;;;;;21.93;17.27;;;0.80;99.90;;;;;;5053835;28;20197;-66
2022/03/04 00:12:50;;;;;;;24.73;19.00;;;0.80;99.90;;;;;;5052969;28;20182;-65
2022/03/04 00:15:16;;;;;;;22.53;17.33;;;0.80;99.90;;;;;;5053694;28;20167;-65
2022/03/04 00:17:42;;;;;;;24.87;17.03;;;0.80;99.90;;;;;;5053193;28;20183;-65
2022/03/04 00:20:09;;;;;;;16.90;15.10;;;0.80;99.90;;;;;;5053186;28;20202;-65
2022/03/04 00:22:35;;;;;;;21.57;15.73;;;0.80;99.90;;;;;;5052947;28;20729;-65
2022/03/04 00:25:00;;;;;;;19.33;15.80;;;0.80;99.90;;;;;;5053380;28;20179;-65
2022/03/04 00:27:26;;;;;;;17.17;15.37;;;0.80;99.90;;;;;;5053504;28;20179;-65
2022/03/04 00:29:52;;;;;;;19.47;14.37;;;0.90;99.90;;;;;;5052806;28;20206;-65
2022/03/04 00:32:17;;;;;;;16.03;13.93;;;1.10;99.90;;;;;;5052950;28;20648;-65
2022/03/04 00:34:43;;;;;;;16.00;14.33;;;1.20;99.90;;;;;;5053028;28;20178;-66
2022/03/04 00:37:08;;;;;;;19.53;14.63;;;1.40;99.90;;;;;;5051740;28;20187;-66
2022/03/04 00:39:34;;;;;;;15.33;13.33;;;1.50;99.90;;;;;;5053036;28;20206;-64
2022/03/04 00:42:00;;;;;;;22.57;15.10;;;1.60;99.90;;;;;;5052366;28;20279;-64
2022/03/04 00:44:25;;;;;;;16.50;13.70;;;1.60;99.90;;;;;;5053055;28;20573;-64
2022/03/04 00:46:51;;;;;;;17.20;13.60;;;1.70;99.90;;;;;;5052737;28;20181;-64
2022/03/04 00:49:16;;;;;;;17.77;14.33;;;1.70;99.90;;;;;;5052885;28;20528;-64
2022/03/04 00:51:43;;;;;;;18.07;15.23;;;1.80;99.90;;;;;;5051248;28;20178;-65
2022/03/04 00:54:09;;;;;;;15.40;13.73;;;1.80;99.90;;;;;;5052487;28;20183;-65
2022/03/04 00:56:36;;;;;;;17.73;14.90;;;1.80;99.90;;;;;;5051497;28;20186;-64
2022/03/04 00:59:02;;;;;;;17.80;14.03;;;1.80;99.90;;;;;;5052676;28;20224;-64
2022/03/04 01:01:28;;;;;;;15.00;13.47;;;1.80;99.90;;;;;;5052543;28;20171;-65
2022/03/04 01:03:54;;;;;;;17.10;13.20;;;1.90;99.90;;;;;;5052135;28;20225;-65
2022/03/04 01:06:20;;;;;;;19.90;13.73;;;1.90;99.90;;;;;;5052481;28;20178;-65
2022/03/04 01:08:45;;;;;;;15.43;12.97;;;1.80;99.90;;;;;;5051207;28;20625;-64
2022/03/04 01:11:11;;;;;;;20.00;14.10;;;1.70;99.90;;;;;;5052317;28;20207;-64
2022/03/04 01:13:37;;;;;;;16.17;14.40;;;1.70;99.90;;;;;;5052149;28;20534;-64
2022/03/04 01:16:03;;;;;;;16.67;14.83;;;1.60;99.90;;;;;;5052047;28;20182;-64
2022/03/04 01:18:28;;;;;;;17.23;15.23;;;1.60;99.90;;;;;;5052235;28;20175;-64
2022/03/04 01:20:54;;;;;;;17.17;15.43;;;1.60;99.90;;;;;;5050692;28;20206;-64
2022/03/04 01:23:19;;;;;;;17.23;14.93;;;1.50;99.90;;;;;;5050623;28;20263;-64
2022/03/04 01:25:46;;;;;;;17.37;14.27;;;1.50;99.90;;;;;;5051843;28;20554;-64
2022/03/04 01:28:11;;;;;;;19.77;15.10;;;1.40;99.90;;;;;;5051937;28;20194;-64
2022/03/04 01:30:37;;;;;;;17.00;14.93;;;1.40;99.90;;;;;;5052077;28;20264;-64
2022/03/04 01:33:02;;;;;;;18.13;16.03;;;1.40;99.90;;;;;;5051848;28;20261;-64
2022/03/04 01:35:29;;;;;;;20.63;15.87;;;1.30;99.90;;;;;;5051921;28;20221;-64
2022/03/04 01:37:54;;;;;;;17.73;15.50;;;1.30;99.90;;;;;;5064856;28;20197;-65
2022/03/04 01:40:20;;;;;;;17.30;15.60;;;1.30;99.90;;;;;;5065772;28;20207;-64
2022/03/04 01:42:46;;;;;;;17.50;13.90;;;1.40;99.90;;;;;;5054482;28;20221;-64
2022/03/04 01:45:12;;;;;;;16.43;14.73;;;1.40;99.90;;;;;;5050375;28;20174;-64
2022/03/04 01:47:41;;;;;;;20.20;15.70;;;1.40;99.90;;;;;;5051816;28;20178;-64
2022/03/04 01:50:08;;;;;;;17.83;13.47;;;1.40;99.90;;;;;;5051411;28;20206;-65
2022/03/04 01:52:34;;;;;;;19.23;15.07;;;1.40;99.90;;;;;;5051620;28;20183;-64
2022/03/04 01:55:00;;;;;;;18.57;15.37;;;1.50;99.90;;;;;;5050064;28;20198;-64
2022/03/04 01:57:25;;;;;;;19.87;15.93;;;1.40;99.90;;;;;;5050097;28;20713;-65
2022/03/04 01:59:51;;;;;;;19.07;15.47;;;1.40;99.90;;;;;;5051358;28;20211;-65
2022/03/04 02:02:16;;;;;;;18.47;15.03;;;1.40;99.90;;;;;;5050932;28;20289;-64
2022/03/04 02:04:43;;;;;;;20.77;15.83;;;1.30;99.90;;;;;;5051484;28;20197;-64
2022/03/04 02:07:09;;;;;;;17.40;15.60;;;1.30;99.90;;;;;;5050957;28;20182;-64
2022/03/04 02:09:35;;;;;;;17.50;15.67;;;1.20;99.90;;;;;;5051343;28;20281;-64
2022/03/04 02:12:00;;;;;;;17.57;15.03;;;1.20;99.90;;;;;;5050722;28;20187;-64
2022/03/04 02:14:26;;;;;;;16.33;14.63;;;1.20;99.90;;;;;;5050210;28;20182;-65
2022/03/04 02:16:53;;;;;;;18.87;16.53;;;1.20;99.90;;;;;;5050883;28;20260;-64
2022/03/04 02:19:21;;;;;;;17.57;14.83;;;1.20;99.90;;;;;;5051337;28;20575;-64
2022/03/04 02:21:55;;;;;;;19.60;15.90;;;1.10;99.90;;;;;;5050897;28;20189;-64
2022/03/04 02:24:24;;;;;;;17.07;14.73;;;1.10;99.90;;;;;;5051246;28;20193;-64
2022/03/04 02:26:51;;;;;;;19.60;15.37;;;1.00;99.90;;;;;;5050960;28;20189;-65
2022/03/04 02:29:17;;;;;;;19.90;16.67;;;0.90;99.90;;;;;;5051134;28;20261;-64
2022/03/04 02:31:43;;;;;;;19.87;17.17;;;0.80;99.90;;;;;;5050914;28;20182;-64
2022/03/04 02:34:09;;;;;;;20.80;16.00;;;0.60;99.90;;;;;;5050819;28;20233;-64
2022/03/04 02:36:35;;;;;;;19.07;15.77;;;0.50;99.90;;;;;;5051014;28;20240;-64
2022/03/04 02:39:01;;;;;;;19.23;16.07;;;0.50;99.90;;;;;;5050902;28;20167;-64
2022/03/04 02:41:26;;;;;;;21.43;17.53;;;0.30;99.90;;;;;;5063064;22;20715;-64
2022/03/04 02:43:52;;;;;;;20.67;17.27;;;0.20;99.90;;;;;;5029989;28;20207;-64
2022/03/04 02:46:18;;;;;;;27.90;17.60;;;0.10;99.90;;;;;;5030867;28;20326;-65
2022/03/04 02:48:44;;;;;;;20.50;16.50;;;0.00;99.90;;;;;;5031215;28;20198;-64
2022/03/04 02:51:09;;;;;;;25.57;16.50;;;-0.10;99.90;;;;;;5031089;28;20277;-64
2022/03/04 02:53:35;;;;;;;22.00;17.33;;;-0.20;99.90;;;;;;5031031;28;20565;-67
2022/03/04 02:56:01;;;;;;;20.90;16.73;;;-0.20;99.90;;;;;;5030543;28;20666;-63
2022/03/04 02:58:26;;;;;;;25.37;19.30;;;-0.30;99.90;;;;;;5030972;28;20183;-63
2022/03/04 03:00:52;;;;;;;19.63;16.37;;;-0.30;99.90;;;;;;5030615;28;20274;-64
2022/03/04 03:03:18;;;;;;;20.23;16.10;;;-0.30;99.90;;;;;;5030503;28;20195;-67
2022/03/04 03:05:43;;;;;;;19.53;15.03;;;-0.40;99.90;;;;;;5030927;28;20651;-67
2022/03/04 03:08:09;;;;;;;27.47;17.00;;;-0.30;99.90;;;;;;5030760;28;20167;-64
2022/03/04 03:10:35;;;;;;;22.27;16.77;;;-0.20;99.90;;;;;;5031060;28;20219;-65
2022/03/04 03:13:01;;;;;;;24.37;15.60;;;-0.20;99.90;;;;;;5030587;28;20207;-65
2022/03/04 03:15:27;;;;;;;24.47;15.13;;;-0.10;99.90;;;;;;5030975;28;20675;-65
2022/03/04 03:17:54;;;;;;;23.20;17.17;;;-0.10;99.90;;;;;;5030687;28;20175;-64
2022/03/04 03:20:20;;;;;;;20.77;16.13;;;0.00;99.90;;;;;;5032502;28;20183;-64
2022/03/04 03:22:45;;;;;;;25.40;18.57;;;0.00;99.90;;;;;;5034002;28;20218;-65
2022/03/04 03:25:12;;;;;;;26.73;17.00;;;0.10;99.90;;;;;;5034841;28;20168;-65
2022/03/04 03:27:38;;;;;;;28.53;20.67;;;0.10;99.90;;;;;;5034250;28;20167;-65
2022/03/04 03:30:05;;;;;;;19.87;16.60;;;0.20;99.90;;;;;;5034349;28;20262;-64
2022/03/04 03:32:31;;;;;;;19.03;15.33;;;0.20;99.90;;;;;;5034030;28;20582;-65
2022/03/04 03:34:56;;;;;;;18.80;15.60;;;0.20;99.90;;;;;;5034352;28;20254;-65
2022/03/04 03:37:22;;;;;;;22.33;16.17;;;0.20;99.90;;;;;;5034270;28;20184;-65
2022/03/04 03:39:48;;;;;;;26.17;16.63;;;0.20;99.90;;;;;;5034160;28;20258;-65
2022/03/04 03:42:14;;;;;;;20.10;16.40;;;0.20;99.90;;;;;;5033834;28;20907;-64
2022/03/04 03:44:39;;;;;;;20.37;16.17;;;0.10;99.90;;;;;;5034386;28;20216;-65
2022/03/04 03:47:05;;;;;;;21.70;15.73;;;0.20;99.90;;;;;;5033934;28;20656;-66
2022/03/04 03:49:31;;;;;;;19.23;16.00;;;0.10;99.90;;;;;;5034419;28;20172;-65
2022/03/04 03:51:56;;;;;;;20.53;16.30;;;0.10;99.90;;;;;;5033700;28;20198;-63
2022/03/04 03:54:22;;;;;;;20.03;16.17;;;0.00;99.90;;;;;;5034277;28;20251;-65
2022/03/04 03:56:48;;;;;;;21.67;15.73;;;0.00;99.90;;;;;;5033749;28;20190;-64
2022/03/04 03:59:14;;;;;;;20.60;15.73;;;-0.10;99.90;;;;;;5034257;28;20619;-65
2022/03/04 04:01:40;;;;;;;23.90;15.47;;;-0.30;99.90;;;;;;5033456;28;20275;-65
2022/03/04 04:04:12;;;;;;;21.43;16.90;;;-0.30;99.90;;;;;;5033647;28;20601;-65
2022/03/04 04:06:39;;;;;;;17.77;15.70;;;-0.40;99.90;;;;;;5033769;28;20175;-65
2022/03/04 04:09:05;;;;;;;19.10;15.70;;;-0.50;99.90;;;;;;5034437;28;20609;-64
2022/03/04 04:11:35;;;;;;;22.03;16.23;;;-0.60;99.90;;;;;;5033637;28;20290;-64
2022/03/04 04:14:01;;;;;;;19.77;17.03;;;-0.70;99.90;;;;;;5033197;28;20613;-65
2022/03/04 04:16:27;;;;;;;18.17;16.20;;;-0.70;99.90;;;;;;5033631;28;20171;-65
2022/03/04 04:18:52;;;;;;;22.73;17.37;;;-0.80;99.90;;;;;;5033784;28;20214;-64
2022/03/04 04:21:18;;;;;;;19.90;16.83;;;-0.80;99.90;;;;;;5033634;28;20250;-63
2022/03/04 04:23:44;;;;;;;19.40;16.93;;;-0.90;99.90;;;;;;5033492;28;20195;-66
2022/03/04 04:26:09;;;;;;;22.27;16.60;;;-0.90;99.90;;;;;;5033185;28;20241;-64
2022/03/04 04:28:35;;;;;;;35.90;18.53;;;-0.90;99.90;;;;;;5033474;28;20660;-65
2022/03/04 04:31:02;;;;;;;26.37;18.03;;;-0.90;99.90;;;;;;5033063;28;20222;-65
2022/03/04 04:33:27;;;;;;;21.53;17.97;;;-1.00;99.90;;;;;;5032905;28;20179;-63
2022/03/04 04:35:53;;;;;;;23.73;18.13;;;-1.00;99.90;;;;;;5031952;28;20732;-65
2022/03/04 04:38:19;;;;;;;23.63;18.00;;;-1.00;99.90;;;;;;5032953;28;20234;-64
2022/03/04 04:40:45;;;;;;;23.67;18.13;;;-1.10;99.90;;;;;;5033048;28;20214;-64
2022/03/04 04:43:10;;;;;;;23.07;17.00;;;-1.10;99.90;;;;;;5032768;28;20195;-64
2022/03/04 04:45:36;;;;;;;23.00;17.23;;;-1.00;99.90;;;;;;5033237;28;20659;-65
2022/03/04 04:48:01;;;;;;;19.47;16.00;;;-0.90;99.90;;;;;;5031380;28;20215;-64
2022/03/04 04:50:27;;;;;;;24.97;17.90;;;-0.90;99.90;;;;;;5033044;28;20203;-65
2022/03/04 04:52:53;;;;;;;21.07;17.07;;;-0.80;99.90;;;;;;5032659;28;20176;-64
2022/03/04 04:55:19;;;;;;;22.87;17.50;;;-0.80;99.90;;;;;;5033221;28;20175;-63
2022/03/04 04:57:44;;;;;;;24.87;17.60;;;-0.70;99.90;;;;;;5032506;28;20182;-64
2022/03/04 05:00:10;;;;;;;23.10;17.20;;;-0.70;99.90;;;;;;5032898;28;20229;-64
2022/03/04 05:02:36;;;;;;;22.50;17.67;;;-0.70;99.90;;;;;;5030932;28;20256;-65
2022/03/04 05:05:02;;;;;;;22.80;16.60;;;-0.70;99.90;;;;;;5032744;28;20653;-65
2022/03/04 05:07:27;;;;;;;29.00;17.63;;;-0.70;99.90;;;;;;5032686;28;20175;-66
2022/03/04 05:09:53;;;;;;;24.60;17.93;;;-0.80;99.90;;;;;;5032574;28;20163;-64
2022/03/04 05:12:18;;;;;;;22.13;18.10;;;-0.80;99.90;;;;;;5032066;28;20203;-64
2022/03/04 05:14:44;;;;;;;24.10;17.07;;;-0.80;99.90;;;;;;5032641;28;20659;-64
2022/03/04 05:17:10;;;;;;;22.30;17.70;;;-0.90;99.90;;;;;;5032464;28;20187;-66
2022/03/04 05:19:35;;;;;;;21.53;17.33;;;-0.90;99.90;;;;;;5032832;28;20592;-64
2022/03/04 05:22:01;;;;;;;24.37;17.80;;;-1.00;99.90;;;;;;5031728;28;20260;-65
2022/03/04 05:24:26;;;;;;;27.47;18.73;;;-1.00;99.90;;;;;;5031333;28;20172;-64
2022/03/04 05:26:52;;;;;;;21.73;16.83;;;-1.00;99.90;;;;;;5030925;28;20544;-65
2022/03/04 05:29:18;;;;;;;21.60;17.17;;;-1.00;99.90;;;;;;5032591;28;20175;-64
2022/03/04 05:31:44;;;;;;;22.73;16.37;;;-1.10;99.90;;;;;;5031128;28;20187;-65
2022/03/04 05:34:11;;;;;;;23.27;18.10;;;-1.10;99.90;;;;;;5031935;28;20178;-64
2022/03/04 05:36:40;;;;;;;23.10;18.20;;;-1.10;99.90;;;;;;5032675;28;20170;-65
2022/03/04 05:39:06;;;;;;;24.50;17.77;;;-1.10;99.90;;;;;;5032126;28;20176;-65
2022/03/04 05:41:31;;;;;;;26.97;19.47;;;-1.00;99.90;;;;;;5032494;28;20203;-65
2022/03/04 05:43:57;;;;;;;27.33;18.17;;;-1.00;99.90;;;;;;5030987;28;20218;-65
2022/03/04 05:46:23;;;;;;;25.33;18.53;;;-1.00;99.90;;;;;;5030934;28;20171;-65
2022/03/04 05:48:49;;;;;;;25.57;17.33;;;-1.00;99.90;;;;;;5032023;28;20671;-66
2022/03/04 05:51:15;;;;;;;25.20;17.40;;;-0.90;99.90;;;;;;5032018;28;20262;-65
2022/03/04 05:53:41;;;;;;;26.30;19.30;;;-0.90;99.90;;;;;;5031535;28;20171;-63
2022/03/04 05:56:09;;;;;;;24.43;17.50;;;-0.80;99.90;;;;;;5031959;28;20254;-64
2022/03/04 05:58:35;;;;;;;24.80;17.60;;;-0.70;99.90;;;;;;5031696;28;20180;-64
2022/03/04 06:01:02;;;;;;;20.07;17.47;;;-0.70;99.90;;;;;;5031563;28;20196;-65
2022/03/04 06:03:28;;;;;;;21.63;17.03;;;-0.60;99.90;;;;;;5031477;28;20191;-65
2022/03/04 06:05:54;;;;;;;26.70;18.23;;;-0.60;99.90;;;;;;5031418;28;20625;-65
2022/03/04 06:08:20;;;;;;;23.30;17.43;;;-0.50;99.90;;;;;;5031489;28;20231;-65
2022/03/04 06:10:45;;;;;;;21.57;17.17;;;-0.50;99.90;;;;;;5031463;28;20192;-66
2022/03/04 06:13:11;;;;;;;25.30;17.37;;;-0.50;99.90;;;;;;5030853;28;20187;-65
2022/03/04 06:15:37;;;;;;;22.57;16.70;;;-0.60;99.90;;;;;;5031741;28;20199;-65
2022/03/04 06:18:03;;;;;;;25.43;17.70;;;-0.60;99.90;;;;;;5029722;28;20186;-65
2022/03/04 06:20:28;;;;;;;20.57;16.50;;;-0.60;99.90;;;;;;5031583;28;20176;-64
2022/03/04 06:22:54;;;;;;;24.73;17.03;;;-0.60;99.90;;;;;;5030784;28;20260;-65
2022/03/04 06:25:20;;;;;;;21.07;15.97;;;-0.60;99.90;;;;;;5031562;28;20163;-64
2022/03/04 06:28:00;;;;;;;20.97;17.07;;;-0.60;99.90;;;;;;5031589;28;20182;-65
2022/03/04 06:30:27;;;;;;;20.73;17.03;;;-0.60;99.90;;;;;;5031616;28;20513;-64
2022/03/04 06:35:39;;;;;;;22.47;17.27;;;-0.60;99.90;;;;;;5031281;28;20608;-66
2022/03/04 06:38:05;;;;;;;26.10;17.43;;;-0.60;99.90;;;;;;5031381;28;20602;-66
2022/03/04 06:40:30;;;;;;;19.93;17.37;;;-0.60;99.90;;;;;;5030989;28;20227;-65
2022/03/04 06:42:56;;;;;;;19.90;16.47;;;-0.60;99.90;;;;;;5031122;28;20285;-66
2022/03/04 06:45:22;;;;;;;22.77;17.77;;;-0.60;99.90;;;;;;5031394;28;20167;-65
2022/03/04 06:47:47;;;;;;;22.37;16.07;;;-0.70;99.90;;;;;;5030845;28;20179;-65
2022/03/04 06:50:13;;;;;;;25.00;17.00;;;-0.70;99.90;;;;;;5031114;28;20193;-66
2022/03/04 06:52:38;;;;;;;20.93;17.40;;;-0.60;99.90;;;;;;5030701;28;20183;-65
2022/03/04 06:55:04;;;;;;;22.23;16.17;;;-0.50;99.90;;;;;;5034138;28;20641;-65
2022/03/04 06:57:31;;;;;;;22.57;18.90;;;-0.50;99.90;;;;;;5035114;28;20175;-65
2022/03/04 06:59:56;;;;;;;26.90;18.07;;;-0.40;99.90;;;;;;5035080;28;20262;-67
2022/03/04 07:02:22;;;;;;;21.83;17.63;;;-0.50;99.90;;;;;;5034435;28;20289;-67
2022/03/04 07:04:49;;;;;;;22.40;16.97;;;-0.40;99.90;;;;;;5035026;28;20263;-65
2022/03/04 07:07:15;;;;;;;25.63;17.90;;;-0.30;99.90;;;;;;5033644;28;20199;-65
2022/03/04 07:09:41;;;;;;;28.07;19.47;;;-0.30;99.90;;;;;;5034957;28;20265;-65
2022/03/04 07:12:07;;;;;;;26.93;18.60;;;-0.30;99.90;;;;;;5034286;28;20213;-65
2022/03/04 07:14:32;;;;;;;26.37;18.93;;;-0.20;99.90;;;;;;5034968;28;20198;-66
2022/03/04 07:16:58;;;;;;;28.47;20.27;;;-0.10;99.90;;;;;;5034486;28;20217;-67
2022/03/04 07:19:24;;;;;;;27.67;20.67;;;0.00;99.90;;;;;;5035257;28;20648;-66
2022/03/04 07:21:49;;;;;;;29.30;19.50;;;0.30;99.90;;;;;;5034078;28;20279;-66
2022/03/04 07:24:15;;;;;;;33.43;18.37;;;0.80;99.90;;;;;;5034460;28;20172;-66
2022/03/04 07:26:40;;;;;;;25.03;17.77;;;1.50;99.90;;;;;;5034556;28;20237;-66
2022/03/04 07:29:06;;;;;;;20.93;17.70;;;2.10;99.90;;;;;;5034474;28;20180;-67
2022/03/04 07:31:32;;;;;;;20.10;15.67;;;2.80;99.90;;;;;;5034362;28;20200;-66
2022/03/04 07:33:58;;;;;;;19.63;15.70;;;3.50;99.90;;;;;;5034092;28;20262;-65
2022/03/04 07:36:23;;;;;;;18.60;14.97;;;4.40;99.90;;;;;;5034570;28;20186;-67
2022/03/04 07:38:49;;;;;;;21.80;16.80;;;5.20;99.90;;;;;;5034201;28;20184;-67
2022/03/04 07:41:14;;;;;;;22.23;15.60;;;5.90;99.90;;;;;;5034077;28;20215;-67
2022/03/04 07:43:40;;;;;;;20.47;15.60;;;6.60;99.90;;;;;;5034242;28;20452;-66
2022/03/04 07:46:06;;;;;;;18.37;15.03;;;7.10;99.90;;;;;;5033814;28;20648;-67
2022/03/04 07:48:32;;;;;;;16.57;14.83;;;7.50;99.90;;;;;;5033678;28;20740;-66
2022/03/04 07:50:57;;;;;;;18.93;14.13;;;7.90;99.90;;;;;;5034038;28;20535;-67
2022/03/04 07:53:23;;;;;;;17.63;14.03;;;8.20;99.90;;;;;;5033756;28;20179;-67
2022/03/04 07:55:48;;;;;;;16.50;14.20;;;8.60;99.90;;;;;;5033632;28;20191;-66
2022/03/04 07:58:14;;;;;;;17.87;13.57;;;8.90;99.90;;;;;;5033124;28;20179;-65
2022/03/04 08:00:40;;;;;;;16.80;13.77;;;9.10;99.90;;;;;;5033882;28;20565;-66
2022/03/04 08:03:05;;;;;;;18.30;14.37;;;9.30;99.90;;;;;;5033490;28;20207;-67
2022/03/04 08:05:31;;;;;;;15.07;13.47;;;9.40;99.90;;;;;;5033299;28;20520;-66
2022/03/04 08:07:56;;;;;;;18.77;14.37;;;9.50;99.90;;;;;;5033508;28;20653;-67
2022/03/04 08:10:22;;;;;;;17.93;14.80;;;9.20;99.90;;;;;;5033851;28;20583;-66
2022/03/04 08:12:48;;;;;;;18.27;14.60;;;8.90;99.90;;;;;;5033120;28;20183;-65
2022/03/04 08:15:13;;;;;;;20.23;15.07;;;8.90;99.90;;;;;;5033805;28;20182;-66
2022/03/04 08:17:40;;;;;;;18.67;14.33;;;8.80;99.90;;;;;;5033316;28;20532;-66
2022/03/04 08:20:07;;;;;;;20.20;15.27;;;8.80;99.90;;;;;;5033552;28;20179;-65
2022/03/04 08:22:33;;;;;;;17.73;14.80;;;8.70;99.90;;;;;;5032846;28;20217;-67
2022/03/04 08:24:59;;;;;;;19.63;14.17;;;8.70;99.90;;;;;;5033501;28;20262;-66
2022/03/04 08:27:24;;;;;;;20.67;13.87;;;8.70;99.90;;;;;;5033420;28;20179;-65
2022/03/04 08:29:50;;;;;;;19.77;14.80;;;8.60;99.90;;;;;;5033468;28;20186;-66
2022/03/04 08:32:23;;;;;;;20.43;15.33;;;8.40;99.90;;;;;;5032979;28;20222;-66
2022/03/04 08:34:49;;;;;;;18.50;15.37;;;8.50;99.90;;;;;;5032818;28;20233;-66
2022/03/04 08:37:15;;;;;;;20.53;15.27;;;8.40;99.90;;;;;;5031834;28;20180;-65
2022/03/04 08:39:40;;;;;;;16.70;14.80;;;8.30;99.90;;;;;;5032961;28;20371;-67
2022/03/04 08:42:07;;;;;;;22.07;15.60;;;8.60;99.90;;;;;;5033139;28;20552;-67
2022/03/04 08:44:32;;;;;;;21.37;16.20;;;8.70;99.90;;;;;;5032030;28;20176;-67
2022/03/04 08:46:58;;;;;;;18.63;15.23;;;8.90;99.90;;;;;;5033035;28;20263;-67
2022/03/04 08:49:24;;;;;;;21.00;15.27;;;9.10;99.90;;;;;;5032799;28;20202;-66
2022/03/04 08:51:50;;;;;;;19.00;15.20;;;9.50;99.90;;;;;;5032762;28;20195;-67
2022/03/04 08:54:15;;;;;;;18.90;14.63;;;9.70;99.70;;;;;;5031080;28;20194;-67
2022/03/04 08:56:41;;;;;;;20.63;16.20;;;10.10;98.60;;;;;;5033078;28;20187;-67
2022/03/04 08:59:07;;;;;;;18.27;14.13;;;10.30;96.30;;;;;;5032923;28;20187;-67
2022/03/04 09:01:33;;;;;;;18.30;15.73;;;10.60;96.60;;;;;;5033100;28;20290;-68
2022/03/04 09:03:59;;;;;;;21.80;17.40;;;10.70;96.20;;;;;;5032180;28;20378;-65
2022/03/04 09:06:24;;;;;;;23.97;17.00;;;10.70;94.70;;;;;;5032722;28;20693;-64
2022/03/04 09:08:50;;;;;;;20.57;16.90;;;11.00;95.30;;;;;;5032699;28;20171;-66
2022/03/04 09:11:16;;;;;;;23.13;16.37;;;11.10;94.20;;;;;;5031972;28;20238;-66
2022/03/04 09:13:41;;;;;;;22.43;15.70;;;11.20;94.10;;;;;;5032235;28;20179;-66
2022/03/04 09:16:07;;;;;;;22.23;16.70;;;11.40;94.30;;;;;;5032138;28;20867;-66
2022/03/04 09:18:32;;;;;;;19.57;15.50;;;11.50;94.30;;;;;;5031525;28;20186;-65
2022/03/04 09:20:58;;;;;;;25.73;17.33;;;11.60;93.20;;;;;;5031852;28;20215;-67
2022/03/04 09:23:24;;;;;;;22.30;17.37;;;11.40;91.50;;;;;;5032169;28;20273;-66
2022/03/04 09:25:51;;;;;;;21.03;16.87;;;11.20;91.60;;;;;;5031796;28;20186;-66
2022/03/04 09:28:17;;;;;;;21.30;16.13;;;10.80;91.10;;;;;;5032204;28;20263;-66
2022/03/04 09:30:42;;;;;;;22.53;16.63;;;10.60;92.30;;;;;;5032007;28;20204;-65
2022/03/04 09:33:08;;;;;;;20.73;16.50;;;10.50;91.70;;;;;;5032123;28;20175;-65
2022/03/04 09:35:34;;;;;;;28.97;17.17;;;10.50;91.90;;;;;;5032254;28;20241;-65
2022/03/04 09:38:06;;;;;;;26.33;17.30;;;10.60;91.90;;;;;;5088537;28;20563;-65
2022/03/04 09:40:32;;;;;;;22.53;16.60;;;10.80;92.00;;;;;;5087875;28;20227;-64
2022/03/04 09:42:58;;;;;;;19.73;17.00;;;10.90;91.70;;;;;;5088609;28;20170;-65
2022/03/04 09:45:24;;;;;;;21.27;17.63;;;11.20;92.60;;;;;;5080584;28;20178;-64
2022/03/04 09:47:51;;;;;;;22.37;16.70;;;11.30;90.80;;;;;;5068455;28;20177;-64
2022/03/04 09:50:17;;;;;;;21.07;16.90;;;11.20;91.50;;;;;;5053193;23;20227;-64
2022/03/04 09:52:46;;;;;;;21.50;17.77;;;11.50;91.90;;;;;;5028639;28;20625;-64
2022/03/04 09:55:12;;;;;;;21.90;16.50;;;11.80;91.20;;;;;;5028357;28;20171;-64
2022/03/04 09:57:39;;;;;;;22.10;16.97;;;12.30;91.30;;;;;;5028564;28;20230;-64
2022/03/04 10:00:05;;;;;;;21.00;17.37;;;12.60;90.90;;;;;;5017613;28;20196;-64
2022/03/04 10:02:34;;;;;;;19.47;17.07;;;12.80;90.00;;;;;;5007089;28;20263;-65
2022/03/04 10:05:01;;;;;;;24.13;17.80;;;13.00;89.10;;;;;;5028180;28;20745;-64
2022/03/04 10:07:27;;;;;;;23.73;17.93;;;12.90;86.70;;;;;;5028278;28;20203;-64
2022/03/04 10:09:53;;;;;;;21.30;16.73;;;12.70;86.40;;;;;;5008919;28;20230;-64
2022/03/04 10:12:20;;;;;;;24.70;18.53;;;12.60;85.50;;;;;;5008053;28;20666;-64
2022/03/04 10:15:06;;;;;;;23.37;17.03;;;12.50;87.80;;;;;;5025485;28;20586;-64
2022/03/04 10:17:35;;;;;;;22.67;17.77;;;12.80;88.50;;;;;;5027972;28;20678;-64
2022/03/04 10:20:07;;;;;;;21.60;16.93;;;13.00;86.70;;;;;;5026099;28;20725;-64
2022/03/04 10:22:47;;;;;;;24.43;18.27;;;13.20;85.30;;;;;;5027700;28;20172;-64
2022/03/04 10:25:14;;;;;;;21.77;17.43;;;13.20;85.60;;;;;;4998427;28;20190;-65
2022/03/04 10:27:40;;;;;;;24.23;18.07;;;13.30;85.60;;;;;;5027877;28;20245;-64
2022/03/04 10:30:06;;;;;;;22.63;17.50;;;13.40;83.60;;;;;;5009057;28;20208;-64
2022/03/04 10:32:32;;;;;;;24.17;17.07;;;13.50;84.90;;;;;;5022704;28;20183;-64
2022/03/04 10:35:07;;;;;;;19.33;16.63;;;13.70;87.10;;;;;;5027649;28;20218;-64
2022/03/04 10:37:48;;;;;;;23.53;19.00;;;14.10;84.50;;;;;;4988619;28;20287;-64
2022/03/04 10:40:30;;;;;;;26.17;17.93;;;14.30;84.00;;;;;;4992570;28;20189;-64
2022/03/04 10:43:02;;;;;;;26.43;17.63;;;14.50;84.40;;;;;;5030121;28;20172;-64
2022/03/04 10:45:29;;;;;;;22.23;17.90;;;14.70;78.80;;;;;;5026953;28;20188;-64
2022/03/04 10:48:02;;;;;;;24.37;18.13;;;15.00;82.60;;;;;;5003190;28;20169;-65
2022/03/04 10:50:34;;;;;;;21.63;16.77;;;15.00;79.70;;;;;;4996749;28;20236;-65
2022/03/04 10:53:08;;;;;;;23.87;17.43;;;15.00;78.60;;;;;;5013116;28;20234;-64
2022/03/04 10:55:42;;;;;;;20.03;16.43;;;15.00;76.80;;;;;;5011848;28;20254;-64
2022/03/04 10:58:22;;;;;;;24.13;17.97;;;15.20;79.60;;;;;;4994759;28;20208;-64
2022/03/04 11:00:53;;;;;;;22.50;17.43;;;15.60;76.00;;;;;;5009709;28;20172;-65
2022/03/04 11:03:20;;;;;;;24.13;18.87;;;15.90;75.50;;;;;;5014048;28;20200;-65
2022/03/04 11:05:46;;;;;;;23.43;18.93;;;15.90;73.80;;;;;;4999395;28;20561;-65
2022/03/04 11:08:13;;;;;;;24.23;18.07;;;15.50;71.60;;;;;;4994330;28;20170;-65
2022/03/04 11:10:39;;;;;;;24.53;18.43;;;15.50;73.10;;;;;;5007340;28;20183;-65
2022/03/04 11:13:06;;;;;;;22.40;18.47;;;15.50;74.10;;;;;;5013606;28;20243;-65
2022/03/04 11:15:32;;;;;;;24.23;19.30;;;15.90;73.70;;;;;;5002630;28;20603;-64
2022/03/04 11:18:08;;;;;;;24.53;19.00;;;16.10;72.30;;;;;;4994386;28;20204;-65
2022/03/04 11:20:35;;;;;;;24.03;17.67;;;16.20;68.50;;;;;;5005169;28;20176;-65
2022/03/04 11:23:01;;;;;;;22.00;18.03;;;16.20;69.90;;;;;;5013504;28;20202;-65
2022/03/04 11:25:38;;;;;;;20.53;17.27;;;16.10;68.60;;;;;;5003848;28;20267;-65
2022/03/04 11:28:14;;;;;;;24.30;17.53;;;16.00;68.00;;;;;;5001195;28;20314;-65
2022/03/04 11:30:46;;;;;;;22.27;18.03;;;15.90;69.80;;;;;;5013627;28;20172;-64
2022/03/04 11:33:26;;;;;;;26.97;17.77;;;15.90;66.90;;;;;;5004811;28;20246;-64
2022/03/04 11:36:02;;;;;;;20.83;17.67;;;16.00;65.70;;;;;;4993760;28;20231;-65
2022/03/04 11:38:46;;;;;;;23.80;18.03;;;16.20;67.30;;;;;;5003442;28;20607;-65
2022/03/04 11:41:19;;;;;;;24.93;18.47;;;16.30;68.30;;;;;;4998118;28;20181;-65
2022/03/04 11:43:58;;;;;;;23.33;17.37;;;16.40;66.80;;;;;;5004802;28;20184;-65
2022/03/04 11:46:42;;;;;;;27.27;18.83;;;16.70;67.30;;;;;;5013402;28;20268;-64
2022/03/04 11:49:41;;;;;;;27.73;20.40;;;16.70;63.30;;;;;;5004681;28;20306;-65
2022/03/04 11:52:10;;;;;;;23.67;17.13;;;16.60;64.10;;;;;;5013041;28;20180;-65
2022/03/04 11:54:40;;;;;;;24.53;18.70;;;16.60;65.70;;;;;;4995532;28;20181;-65
2022/03/04 11:57:42;;;;;;;20.50;17.47;;;16.80;65.90;;;;;;5007598;28;20775;-65
2022/03/04 12:00:11;;;;;;;23.57;16.97;;;17.10;63.50;;;;;;5011671;28;20199;-65
2022/03/04 12:02:46;;;;;;;21.63;16.80;;;17.30;60.00;;;;;;4994496;28;20307;-65
2022/03/04 12:05:15;;;;;;;23.07;17.70;;;17.10;61.90;;;;;;4993226;28;20172;-65
2022/03/04 12:07:42;;;;;;;22.70;17.70;;;17.10;60.30;;;;;;5011015;28;20250;-65
2022/03/04 12:10:13;;;;;;;21.07;17.37;;;16.80;59.30;;;;;;5012853;28;20207;-65
2022/03/04 12:12:39;;;;;;;22.33;17.67;;;16.90;57.60;;;;;;4995455;28;20192;-65
2022/03/04 12:15:17;;;;;;;22.37;17.07;;;16.70;58.70;;;;;;4993044;28;20168;-65
2022/03/04 12:18:03;;;;;;;26.67;18.53;;;16.40;57.40;;;;;;5009960;28;20294;-64
2022/03/04 12:20:30;;;;;;;24.63;19.20;;;16.40;58.60;;;;;;5009994;28;20721;-64
2022/03/04 12:23:06;;;;;;;23.10;16.53;;;16.40;58.20;;;;;;5010748;28;20184;-65
2022/03/04 12:25:54;;;;;;;20.43;15.90;;;16.50;58.40;;;;;;4995096;28;20230;-65
2022/03/04 12:28:43;;;;;;;21.30;15.57;;;16.60;58.10;;;;;;4992783;28;20538;-65
2022/03/04 12:31:11;;;;;;;24.60;17.70;;;16.50;57.10;;;;;;4973689;28;20565;-65
2022/03/04 12:33:44;;;;;;;20.07;16.37;;;16.10;55.60;;;;;;4979021;28;20756;-65